Time;durP1;ratioP1;P1;durP2;ratioP2;P2;SDS_P1;SDS_P2;PMS_P1;PMS_P2;Temp;Humidity;BMP_temperature;BMP_pressure;BME280_temperature;BME280_humidity;BME280_pressure;Samples;Min_cycle;Max_cycle;Signal;HPM_P1;HPM_P2
2021/07/27 00:01:16;;;;;;;11.98;6.13;;;;;;;17.85;77.21;96598.09;6238486;23;20024;-73
2021/07/27 00:03:43;;;;;;;5.90;5.30;;;;;;;17.86;77.15;96597.06;6238373;23;20017;-74
2021/07/27 00:06:12;;;;;;;5.55;4.80;;;;;;;17.86;77.18;96600.53;6239243;23;20021;-72
2021/07/27 00:08:39;;;;;;;6.57;5.47;;;;;;;17.84;76.89;96594.66;6240154;23;20058;-74
2021/07/27 00:11:10;;;;;;;5.63;4.82;;;;;;;17.84;77.17;96604.41;6229562;23;20016;-74
2021/07/27 00:13:39;;;;;;;6.63;4.55;;;;;;;17.86;77.60;96591.78;6218518;23;20020;-74
2021/07/27 00:16:07;;;;;;;7.53;5.45;;;;;;;17.87;77.10;96588.13;6217091;23;20029;-73
2021/07/27 00:18:35;;;;;;;5.18;4.68;;;;;;;17.89;78.53;96586.06;6217600;23;20025;-74
2021/07/27 00:21:03;;;;;;;7.78;4.18;;;;;;;17.94;77.29;96580.09;6217178;23;20020;-74
2021/07/27 00:23:32;;;;;;;4.65;4.22;;;;;;;17.91;77.21;96576.88;6217448;23;20025;-73
2021/07/27 00:26:00;;;;;;;7.05;4.57;;;;;;;17.96;78.10;96584.09;6218730;23;20095;-74
2021/07/27 00:28:29;;;;;;;5.07;4.47;;;;;;;18.03;78.78;96579.50;6217533;23;20024;-73
2021/07/27 00:30:56;;;;;;;5.15;4.28;;;;;;;18.04;77.16;96582.97;6216804;23;20079;-72
2021/07/27 00:33:24;;;;;;;6.18;4.00;;;;;;;17.98;76.66;96579.41;6216491;23;20024;-74
2021/07/27 00:35:51;;;;;;;7.30;4.57;;;;;;;17.95;76.47;96571.97;6216709;23;20028;-74
2021/07/27 00:38:20;;;;;;;5.82;4.07;;;;;;;17.90;76.48;96579.75;6216908;23;20395;-73
2021/07/27 00:40:48;;;;;;;5.40;4.22;;;;;;;17.87;76.58;96572.28;6216435;23;20028;-74
2021/07/27 00:43:19;;;;;;;7.05;4.47;;;;;;;17.83;76.71;96573.78;6216415;23;20025;-74
2021/07/27 00:45:48;;;;;;;6.68;4.10;;;;;;;17.80;76.77;96579.47;6216236;23;20464;-73
2021/07/27 00:48:16;;;;;;;6.00;4.40;;;;;;;17.77;76.72;96572.00;6216699;23;20024;-73
2021/07/27 00:50:44;;;;;;;7.55;5.20;;;;;;;17.73;76.57;96576.13;6216215;23;20036;-73
2021/07/27 00:53:11;;;;;;;6.70;5.22;;;;;;;17.67;76.80;96578.66;6214899;23;20025;-74
2021/07/27 00:55:40;;;;;;;7.72;5.05;;;;;;;17.62;76.74;96580.34;6215988;23;20020;-73
2021/07/27 00:58:07;;;;;;;11.00;5.28;;;;;;;17.55;76.84;96580.47;6215553;23;20025;-73
2021/07/27 01:00:35;;;;;;;5.22;4.70;;;;;;;17.49;77.10;96581.34;6216328;23;20020;-73
2021/07/27 01:03:04;;;;;;;7.35;4.65;;;;;;;17.47;78.30;96580.78;6215375;23;20024;-73
2021/07/27 01:05:32;;;;;;;6.93;4.68;;;;;;;17.47;77.50;96583.41;6215193;23;20058;-74
2021/07/27 01:07:59;;;;;;;7.45;4.97;;;;;;;17.43;77.18;96577.81;6216104;23;20028;-73
2021/07/27 01:10:27;;;;;;;8.27;5.20;;;;;;;17.39;77.03;96578.50;6216162;23;20024;-73
2021/07/27 01:12:54;;;;;;;5.88;5.07;;;;;;;17.33;76.93;96582.03;6215842;23;20027;-73
2021/07/27 01:15:23;;;;;;;5.60;4.72;;;;;;;17.30;78.38;96580.63;6216230;23;20027;-73
2021/07/27 01:17:58;;;;;;;9.15;5.28;;;;;;;17.30;77.56;96586.72;6216223;23;20039;-76
2021/07/27 01:20:33;;;;;;;6.55;5.15;;;;;;;17.26;77.40;96588.19;6216482;23;20023;-74
2021/07/27 01:39:42;;;;;;;9.13;5.57;;;;;;;17.08;77.31;96590.88;6215765;23;20024;-73
2021/07/27 01:42:11;;;;;;;6.80;4.82;;;;;;;17.04;77.46;96585.25;6215772;23;20020;-74
2021/07/27 01:44:46;;;;;;;9.52;5.72;;;;;;;17.02;77.62;96581.22;6215456;23;20024;-73
2021/07/27 01:47:15;;;;;;;6.32;5.43;;;;;;;17.02;77.78;96581.22;6215768;23;20021;-73
2021/07/27 01:49:44;;;;;;;5.97;5.38;;;;;;;17.00;77.66;96572.72;6215822;23;20391;-73
2021/07/27 01:52:14;;;;;;;7.43;5.97;;;;;;;17.00;77.67;96578.00;6215610;23;20021;-73
2021/07/27 01:54:54;;;;;;;7.85;6.00;;;;;;;16.99;77.68;96579.00;6215285;23;20020;-74
2021/07/27 01:57:23;;;;;;;9.25;6.30;;;;;;;16.98;77.18;96580.06;6215660;23;20035;-75
2021/07/27 02:00:04;;;;;;;7.85;5.15;;;;;;;16.94;77.40;96590.22;6215127;23;20017;-74
2021/07/27 02:02:32;;;;;;;7.35;4.43;;;;;;;16.93;77.83;96577.28;6215160;23;20020;-73
2021/07/27 02:04:59;;;;;;;6.50;5.10;;;;;;;16.88;77.49;96586.66;6215514;23;20075;-74
2021/07/27 02:07:27;;;;;;;5.93;4.43;;;;;;;16.84;77.63;96580.22;6215435;23;20024;-74
2021/07/27 02:10:02;;;;;;;6.85;5.38;;;;;;;16.80;77.66;96584.31;6215527;23;20108;-74
2021/07/27 02:12:37;;;;;;;8.63;4.97;;;;;;;16.78;77.87;96585.53;6215103;23;20031;-74
2021/07/27 02:15:22;;;;;;;7.03;5.53;;;;;;;16.76;77.95;96592.88;6215212;23;20027;-73
2021/07/27 02:17:50;;;;;;;5.35;4.85;;;;;;;16.71;77.81;96590.91;6215224;23;20464;-74
2021/07/27 02:20:18;;;;;;;5.65;5.05;;;;;;;16.67;77.85;96589.72;6215587;23;20028;-74
2021/07/27 02:22:45;;;;;;;5.78;5.10;;;;;;;16.66;78.00;96583.66;6216421;23;20028;-74
2021/07/27 02:25:14;;;;;;;7.47;5.45;;;;;;;16.64;77.89;96588.34;6217036;23;20376;-73
2021/07/27 02:27:42;;;;;;;6.03;5.32;;;;;;;16.62;77.93;96587.75;6217366;23;20020;-75
2021/07/27 02:30:10;;;;;;;9.30;5.63;;;;;;;16.62;78.13;96592.22;6215618;23;20016;-73
2021/07/27 02:32:37;;;;;;;8.15;5.10;;;;;;;16.63;78.44;96593.81;6215091;23;20028;-73
2021/07/27 02:35:07;;;;;;;8.00;5.57;;;;;;;16.64;78.07;96590.19;6214939;23;20024;-74
2021/07/27 02:37:36;;;;;;;6.78;5.85;;;;;;;16.64;78.55;96596.25;6214960;23;20519;-73
2021/07/27 02:40:06;;;;;;;7.18;5.75;;;;;;;16.70;80.42;96599.81;6215207;23;20028;-73
2021/07/27 02:42:34;;;;;;;6.53;5.03;;;;;;;16.71;78.61;96606.69;6214887;23;20017;-73
2021/07/27 02:45:04;;;;;;;5.80;4.97;;;;;;;16.73;78.98;96603.84;6215177;23;20075;-73
2021/07/27 02:47:33;;;;;;;5.38;4.88;;;;;;;16.76;79.97;96606.81;6215175;23;20017;-73
2021/07/27 02:50:01;;;;;;;5.28;4.78;;;;;;;16.77;79.18;96600.56;6214743;23;20472;-73
2021/07/27 02:52:28;;;;;;;5.72;4.85;;;;;;;16.74;78.45;96603.63;6214193;23;20499;-73
2021/07/27 02:54:55;;;;;;;6.60;5.57;;;;;;;16.72;78.32;96597.75;6215178;23;20353;-74
2021/07/27 02:57:23;;;;;;;5.72;4.85;;;;;;;16.65;77.79;96592.56;6215238;23;20024;-74
2021/07/27 02:59:52;;;;;;;6.68;5.05;;;;;;;16.63;79.03;96596.44;6214782;23;20016;-74
2021/07/27 03:02:20;;;;;;;4.85;4.35;;;;;;;16.63;79.72;96596.44;6214828;23;20348;-73
2021/07/27 03:04:48;;;;;;;8.27;4.68;;;;;;;16.64;78.41;96596.25;6215140;23;20078;-73
2021/07/27 03:07:19;;;;;;;6.47;5.10;;;;;;;16.64;78.21;96603.34;6214692;23;20484;-73
2021/07/27 03:12:28;;;;;;;5.25;4.43;;;;;;;16.57;77.69;96595.50;6213964;23;20020;-73
2021/07/27 03:14:59;;;;;;;6.25;5.07;;;;;;;16.53;77.45;96598.78;6214326;23;20480;-74
2021/07/27 03:17:27;;;;;;;5.78;4.65;;;;;;;16.52;78.67;96602.44;6215120;23;20028;-74
2021/07/27 03:19:55;;;;;;;6.65;4.68;;;;;;;16.54;79.66;96595.94;6214663;23;20020;-74
2021/07/27 03:22:23;;;;;;;5.88;4.78;;;;;;;16.60;78.99;96604.81;6214179;23;20479;-73
2021/07/27 03:24:50;;;;;;;5.65;4.30;;;;;;;16.59;77.69;96603.97;6214805;23;20020;-74
2021/07/27 03:27:18;;;;;;;6.68;4.88;;;;;;;16.55;78.08;96599.38;6214931;23;20028;-74
2021/07/27 03:29:45;;;;;;;5.68;4.80;;;;;;;16.58;79.34;96605.00;6214578;23;20484;-74
2021/07/27 03:32:14;;;;;;;5.70;5.07;;;;;;;16.57;78.73;96613.13;6214709;23;20032;-74
2021/07/27 03:34:42;;;;;;;6.43;4.80;;;;;;;16.54;77.67;96609.09;6214580;23;20078;-74
2021/07/27 03:37:11;;;;;;;6.35;4.97;;;;;;;16.55;79.79;96608.09;6214935;23;20096;-74
2021/07/27 03:39:38;;;;;;;4.95;4.45;;;;;;;16.61;79.65;96606.41;6215180;23;20017;-73
2021/07/27 03:42:06;;;;;;;6.38;4.68;;;;;;;16.62;77.83;96608.03;6215209;23;20498;-73
2021/07/27 03:44:34;;;;;;;6.45;4.72;;;;;;;16.57;77.30;96610.50;6215141;23;20024;-74
2021/07/27 03:47:08;;;;;;;6.35;4.63;;;;;;;16.50;77.48;96613.19;6214816;23;20024;-73
2021/07/27 03:49:37;;;;;;;6.43;4.68;;;;;;;16.44;77.38;96609.63;6214804;23;20055;-73
2021/07/27 03:52:05;;;;;;;6.80;5.20;;;;;;;16.36;77.17;96606.47;6214008;23;20016;-74
2021/07/27 03:54:34;;;;;;;5.30;4.80;;;;;;;16.33;77.95;96610.31;6215010;23;20024;-74
2021/07/27 03:57:02;;;;;;;5.28;4.65;;;;;;;16.33;78.54;96607.69;6214820;23;20070;-73
2021/07/27 03:59:30;;;;;;;5.70;4.72;;;;;;;16.34;78.30;96605.88;6214833;23;20020;-74
2021/07/27 04:01:58;;;;;;;7.72;4.60;;;;;;;16.37;79.09;96605.44;6214823;23;20028;-74
2021/07/27 04:04:26;;;;;;;6.90;4.78;;;;;;;16.39;80.03;96613.91;6214401;23;20020;-74
2021/07/27 04:06:55;;;;;;;6.30;5.20;;;;;;;16.45;81.48;96613.06;6214494;23;20040;-73
2021/07/27 04:09:23;;;;;;;5.43;4.30;;;;;;;16.55;81.03;96610.72;6215059;23;20020;-74
2021/07/27 04:11:51;;;;;;;5.35;3.78;;;;;;;16.64;80.02;96611.25;6215834;23;20074;-74
2021/07/27 04:14:18;;;;;;;7.78;4.72;;;;;;;16.68;79.35;96617.66;6214484;23;20500;-75
2021/07/27 04:16:46;;;;;;;5.72;3.83;;;;;;;16.69;79.43;96620.06;6235644;23;20060;-72
2021/07/27 04:19:14;;;;;;;6.75;4.45;;;;;;;16.68;77.87;96610.59;6241891;23;20028;-74
2021/07/27 04:21:41;;;;;;;7.55;4.60;;;;;;;16.64;78.43;96621.78;6241282;23;20012;-73
2021/07/27 04:24:10;;;;;;;7.68;5.10;;;;;;;16.60;78.41;96615.34;6216244;23;20025;-74
2021/07/27 04:26:37;;;;;;;6.00;5.22;;;;;;;16.57;77.33;96615.75;6223073;23;20039;-74
2021/07/27 04:29:05;;;;;;;5.72;4.82;;;;;;;16.49;77.20;96614.22;6238760;23;20014;-74
2021/07/27 04:31:32;;;;;;;6.90;5.25;;;;;;;16.40;76.97;96615.56;6239727;23;20009;-73
2021/07/27 04:34:00;;;;;;;5.18;4.68;;;;;;;16.38;79.03;96607.84;6230021;23;20031;-74
2021/07/27 04:36:27;;;;;;;5.55;4.07;;;;;;;16.46;79.42;96607.56;6216537;23;20020;-75
2021/07/27 04:38:55;;;;;;;5.00;4.50;;;;;;;16.51;78.40;96611.34;6216576;23;20027;-74
2021/07/27 04:41:24;;;;;;;6.13;4.20;;;;;;;16.59;79.08;96611.88;6214914;23;20028;-74
2021/07/27 04:43:52;;;;;;;7.40;6.28;;;;;;;16.64;77.29;96611.25;6215858;23;20024;-75
2021/07/27 04:46:19;;;;;;;6.13;5.32;;;;;;;16.58;76.44;96614.75;6230293;23;20020;-74
2021/07/27 04:48:47;;;;;;;5.47;4.97;;;;;;;16.53;78.17;96606.69;6236585;23;20028;-74
2021/07/27 04:51:14;;;;;;;6.05;4.82;;;;;;;16.52;77.03;96608.50;6221351;23;20021;-74
2021/07/27 04:53:42;;;;;;;5.05;4.35;;;;;;;16.49;76.93;96608.97;6214994;23;20027;-75
2021/07/27 04:56:10;;;;;;;5.40;4.25;;;;;;;16.48;76.90;96602.88;6214010;23;20067;-74
2021/07/27 04:58:49;;;;;;;6.43;5.00;;;;;;;16.43;76.79;96602.72;6214457;23;20028;-75
2021/07/27 05:01:16;;;;;;;7.50;4.80;;;;;;;16.38;77.14;96602.59;6214530;23;20043;-74
2021/07/27 05:03:44;;;;;;;5.82;4.60;;;;;;;16.35;77.40;96597.75;6214112;23;20024;-75
2021/07/27 05:06:12;;;;;;;5.57;4.85;;;;;;;16.32;77.27;96595.56;6210875;23;20024;-73
2021/07/27 05:08:42;;;;;;;8.60;4.63;;;;;;;16.30;77.44;96594.97;6213194;23;20024;-74
2021/07/27 05:11:09;;;;;;;7.13;4.97;;;;;;;16.31;77.86;96593.13;6216126;23;20027;-76
2021/07/27 05:13:38;;;;;;;11.07;4.60;;;;;;;16.33;77.63;96594.53;6216219;23;20024;-75
2021/07/27 05:16:14;;;;;;;7.55;4.07;;;;;;;16.37;78.80;96589.63;6214894;23;20083;-75
2021/07/27 05:18:42;;;;;;;5.32;4.13;;;;;;;16.41;77.97;96578.44;6216237;23;20027;-73
2021/07/27 05:21:09;;;;;;;4.82;4.05;;;;;;;16.50;79.07;96583.44;6216718;23;20021;-76
2021/07/27 05:23:37;;;;;;;4.32;3.90;;;;;;;16.58;78.25;96585.78;6215564;23;20029;-76
2021/07/27 05:26:05;;;;;;;3.95;3.45;;;;;;;16.64;78.45;96583.06;6215932;23;20021;-75
2021/07/27 05:28:32;;;;;;;5.82;4.30;;;;;;;16.64;77.80;96579.63;6216106;23;20127;-76
2021/07/27 05:30:59;;;;;;;6.22;3.50;;;;;;;16.65;77.81;96583.88;6216470;23;20028;-76
2021/07/27 05:33:29;;;;;;;5.72;4.35;;;;;;;16.72;78.32;96591.69;6216032;23;20024;-77
2021/07/27 05:35:57;;;;;;;4.60;3.63;;;;;;;16.79;79.10;96587.97;6216753;23;20032;-79
2021/07/27 05:38:24;;;;;;;4.95;3.33;;;;;;;16.86;78.32;96593.19;6216337;23;20326;-75
2021/07/27 05:40:53;;;;;;;5.57;4.00;;;;;;;16.88;77.89;96586.66;6215639;23;20028;-73
2021/07/27 05:43:20;;;;;;;7.05;3.78;;;;;;;16.89;77.94;96583.00;6215595;23;20020;-78
2021/07/27 05:45:48;;;;;;;5.43;3.97;;;;;;;16.92;77.92;96591.47;6217866;23;20028;-80
2021/07/27 05:48:15;;;;;;;6.35;4.50;;;;;;;16.95;77.77;96593.69;6222046;23;20024;-79
2021/07/27 05:50:44;;;;;;;4.57;4.15;;;;;;;17.00;78.16;96593.81;6216938;23;20020;-80
2021/07/27 05:53:11;;;;;;;5.68;3.85;;;;;;;17.05;77.91;96586.88;6216839;23;20025;-79
2021/07/27 05:55:39;;;;;;;5.95;4.18;;;;;;;17.12;77.91;96597.31;6219169;23;20464;-76
2021/07/27 05:58:06;;;;;;;5.20;4.47;;;;;;;17.17;77.52;96586.91;6216091;23;20024;-74
2021/07/27 06:00:35;;;;;;;6.15;3.78;;;;;;;17.22;77.41;96583.59;6217671;23;20028;-81
2021/07/27 06:03:04;;;;;;;4.72;4.13;;;;;;;17.26;78.18;96585.53;6215679;23;20075;-75
2021/07/27 06:05:32;;;;;;;5.22;4.03;;;;;;;17.34;77.84;96596.78;6218582;23;20383;-79
2021/07/27 06:08:01;;;;;;;4.90;4.20;;;;;;;17.39;77.60;96592.47;6218065;23;20016;-78
2021/07/27 06:10:28;;;;;;;5.82;4.28;;;;;;;17.44;77.51;96589.16;6215695;23;20031;-77
2021/07/27 06:12:56;;;;;;;6.53;4.47;;;;;;;17.49;77.56;96597.19;6215389;23;20025;-76
2021/07/27 06:15:23;;;;;;;4.93;4.25;;;;;;;17.53;77.34;96579.88;6215141;23;20028;-78
2021/07/27 06:17:51;;;;;;;5.97;4.93;;;;;;;17.58;77.51;96584.47;6215335;23;20024;-78
2021/07/27 06:20:18;;;;;;;6.72;4.60;;;;;;;17.64;77.58;96580.94;6215024;23;20020;-77
2021/07/27 06:22:46;;;;;;;5.93;4.53;;;;;;;17.75;78.31;96584.63;6215480;23;20100;-78
2021/07/27 06:25:15;;;;;;;8.88;4.85;;;;;;;17.81;77.81;96584.53;6210315;23;20028;-76
2021/07/27 06:27:43;;;;;;;8.00;4.80;;;;;;;17.88;78.19;96590.50;6214977;23;20024;-77
2021/07/27 06:30:12;;;;;;;9.30;5.03;;;;;;;17.96;78.01;96591.22;6217207;23;20031;-77
2021/07/27 06:32:40;;;;;;;6.78;5.00;;;;;;;18.03;78.01;96584.78;6214629;23;20012;-78
2021/07/27 06:35:08;;;;;;;7.88;4.47;;;;;;;18.11;77.76;96588.94;6214863;23;20048;-77
2021/07/27 06:37:36;;;;;;;12.57;4.82;;;;;;;18.18;77.56;96583.53;6214690;23;20021;-77
2021/07/27 06:40:04;;;;;;;5.97;4.20;;;;;;;18.26;76.94;96593.75;6215025;23;20391;-77
2021/07/27 06:42:33;;;;;;;10.90;5.38;;;;;;;18.34;76.75;96590.75;6214375;23;20024;-76
2021/07/27 06:45:01;;;;;;;5.57;4.88;;;;;;;18.41;75.23;96583.53;6214914;23;20052;-76
2021/07/27 06:47:29;;;;;;;4.93;4.43;;;;;;;18.50;75.18;96582.13;6214009;23;20020;-77
2021/07/27 06:49:57;;;;;;;7.72;4.55;;;;;;;18.58;74.97;96588.09;6214884;23;20060;-78
2021/07/27 06:52:24;;;;;;;6.05;4.60;;;;;;;18.68;75.69;96591.75;6214691;23;20024;-76
2021/07/27 06:54:52;;;;;;;5.10;4.60;;;;;;;18.76;75.41;96601.16;6214793;23;20027;-75
2021/07/27 06:57:20;;;;;;;6.18;4.03;;;;;;;18.83;73.62;96604.50;6214391;23;20047;-76
2021/07/27 06:59:49;;;;;;;6.95;4.53;;;;;;;18.91;73.51;96606.78;6214556;23;20035;-75
2021/07/27 07:02:17;;;;;;;5.68;4.32;;;;;;;18.99;72.79;96610.09;6214143;23;20032;-74
2021/07/27 07:04:44;;;;;;;4.93;3.97;;;;;;;19.08;72.15;96614.75;6214254;23;20096;-74
2021/07/27 07:07:12;;;;;;;4.38;3.80;;;;;;;19.19;72.57;96609.66;6214070;23;20032;-74
2021/07/27 07:09:39;;;;;;;8.25;4.20;;;;;;;19.28;72.14;96614.31;6214275;23;20031;-74
2021/07/27 07:12:07;;;;;;;5.00;4.50;;;;;;;19.38;71.44;96610.28;6214369;23;20021;-75
2021/07/27 07:14:35;;;;;;;5.22;4.13;;;;;;;19.50;71.37;96618.94;6213802;23;20017;-75
2021/07/27 07:17:04;;;;;;;5.40;4.60;;;;;;;19.62;71.42;96625.00;6214081;23;20404;-75
2021/07/27 07:19:32;;;;;;;6.30;4.13;;;;;;;19.72;71.18;96613.78;6214787;23;20048;-76
2021/07/27 07:21:59;;;;;;;5.30;4.18;;;;;;;19.81;70.79;96617.66;6214158;23;20043;-76
2021/07/27 07:24:27;;;;;;;7.15;4.38;;;;;;;19.92;70.42;96618.63;6214231;23;20027;-74
2021/07/27 07:26:54;;;;;;;5.18;3.85;;;;;;;20.01;70.64;96622.47;6213593;23;20021;-74
2021/07/27 07:29:22;;;;;;;5.05;4.55;;;;;;;20.09;70.83;96627.34;6214173;23;20348;-75
2021/07/27 07:31:49;;;;;;;4.80;4.07;;;;;;;20.15;70.00;96621.09;6214357;23;20032;-75
2021/07/27 07:34:18;;;;;;;4.82;4.32;;;;;;;20.21;69.79;96629.13;6214123;23;20021;-75
2021/07/27 07:36:45;;;;;;;5.47;4.80;;;;;;;20.26;69.03;96629.19;6214189;23;20028;-73
2021/07/27 07:39:13;;;;;;;7.65;4.07;;;;;;;20.34;69.55;96631.44;6213451;23;20020;-74
2021/07/27 07:41:41;;;;;;;4.65;4.15;;;;;;;20.43;69.39;96624.69;6214134;23;20028;-76
2021/07/27 07:44:09;;;;;;;6.63;4.28;;;;;;;20.48;68.65;96632.69;6213903;23;20021;-74
2021/07/27 07:46:36;;;;;;;6.18;4.30;;;;;;;20.56;68.29;96634.13;6214174;23;20028;-76
2021/07/27 07:49:06;;;;;;;7.80;4.32;;;;;;;20.62;68.35;96633.19;6213754;23;20020;-76
2021/07/27 07:51:35;;;;;;;6.28;3.72;;;;;;;20.68;67.72;96634.03;6213569;23;20475;-78
2021/07/27 07:54:03;;;;;;;7.78;4.03;;;;;;;20.72;67.66;96625.34;6213817;23;20024;-78
2021/07/27 07:56:30;;;;;;;4.38;3.95;;;;;;;20.77;66.76;96624.63;6214389;23;20021;-75
2021/07/27 07:58:58;;;;;;;5.28;3.92;;;;;;;20.84;66.42;96625.25;6214011;23;20020;-75
2021/07/27 08:01:25;;;;;;;5.65;4.30;;;;;;;20.91;66.24;96625.88;6214171;23;20020;-76
2021/07/27 08:03:53;;;;;;;4.78;4.07;;;;;;;21.01;66.67;96624.38;6214275;23;20016;-74
2021/07/27 08:06:21;;;;;;;11.38;3.88;;;;;;;21.09;66.02;96630.03;6214854;23;20027;-74
2021/07/27 08:08:50;;;;;;;6.85;3.67;;;;;;;21.19;65.36;96632.03;6214565;23;20329;-75
2021/07/27 08:11:17;;;;;;;4.75;4.18;;;;;;;21.28;64.98;96627.88;6214023;23;20099;-74
2021/07/27 08:13:45;;;;;;;7.07;4.25;;;;;;;21.38;64.45;96635.94;6212881;23;20044;-74
2021/07/27 08:16:13;;;;;;;4.10;3.65;;;;;;;21.50;64.96;96627.88;6211708;23;20040;-75
2021/07/27 08:18:41;;;;;;;5.97;4.07;;;;;;;21.59;64.25;96630.88;6215860;23;20027;-75
2021/07/27 08:21:08;;;;;;;4.22;3.83;;;;;;;21.69;64.16;96630.97;6235904;23;20040;-74
2021/07/27 08:23:39;;;;;;;5.78;4.18;;;;;;;21.78;63.36;96628.66;6238798;23;20035;-74
2021/07/27 08:26:08;;;;;;;5.73;4.13;;;;;;;21.85;63.28;96625.78;6230878;23;20027;-75
2021/07/27 08:28:38;;;;;;;5.63;3.80;;;;;;;21.93;64.05;96626.13;6221020;23;20261;-74
2021/07/27 08:31:06;;;;;;;5.30;3.90;;;;;;;22.05;63.79;96619.84;6217256;23;20030;-75
2021/07/27 08:33:33;;;;;;;7.05;4.20;;;;;;;22.17;64.17;96625.75;6214194;23;20025;-75
2021/07/27 08:36:01;;;;;;;5.18;4.25;;;;;;;22.26;63.76;96623.44;6213836;23;20719;-76
2021/07/27 08:38:29;;;;;;;4.28;3.83;;;;;;;22.34;62.93;96626.44;6214050;23;20052;-76
2021/07/27 08:40:58;;;;;;;4.60;3.95;;;;;;;22.44;62.75;96631.03;6213888;23;20020;-75
2021/07/27 08:43:27;;;;;;;5.47;4.10;;;;;;;22.52;62.84;96633.22;6210290;23;20017;-78
2021/07/27 08:45:55;;;;;;;4.80;3.65;;;;;;;22.61;61.73;96629.00;6213813;23;20037;-74
2021/07/27 08:48:23;;;;;;;4.30;3.90;;;;;;;22.70;60.75;96633.84;6211785;23;20029;-76
2021/07/27 08:50:51;;;;;;;6.78;4.72;;;;;;;22.79;60.82;96629.63;6213546;23;20031;-75
2021/07/27 08:53:20;;;;;;;6.38;4.55;;;;;;;22.90;60.20;96633.13;6213239;23;20025;-75
2021/07/27 08:55:48;;;;;;;5.88;3.83;;;;;;;22.98;58.78;96629.94;6213386;23;20021;-75
2021/07/27 08:58:17;;;;;;;4.57;3.90;;;;;;;23.02;59.45;96631.06;6214230;23;20035;-76
2021/07/27 09:00:46;;;;;;;6.15;3.67;;;;;;;23.07;58.94;96622.28;6214431;23;20025;-75
2021/07/27 09:03:16;;;;;;;6.85;3.88;;;;;;;23.13;59.61;96631.91;6231986;23;20031;-75
2021/07/27 09:05:44;;;;;;;6.70;4.82;;;;;;;23.20;59.48;96627.16;6231446;23;20024;-75
2021/07/27 09:08:15;;;;;;;4.80;4.28;;;;;;;23.27;59.52;96627.69;6230011;23;20028;-75
2021/07/27 09:10:45;;;;;;;5.43;4.03;;;;;;;23.38;59.15;96626.66;6217076;23;20360;-75
2021/07/27 09:13:15;;;;;;;4.93;3.65;;;;;;;23.48;58.14;96630.41;6216140;23;20039;-75
2021/07/27 09:15:45;;;;;;;9.70;3.75;;;;;;;23.56;57.81;96625.34;6216148;23;20487;-77
2021/07/27 09:18:15;;;;;;;5.55;3.60;;;;;;;23.61;58.15;96628.03;6224101;23;20028;-76
2021/07/27 09:20:44;;;;;;;5.03;3.88;;;;;;;23.64;56.83;96626.72;6229382;23;20048;-76
2021/07/27 09:23:14;;;;;;;4.20;3.70;;;;;;;23.61;56.89;96633.38;6224328;23;20345;-75
2021/07/27 09:25:45;;;;;;;4.88;3.80;;;;;;;23.59;57.50;96635.50;6215740;23;20079;-76
2021/07/27 09:28:13;;;;;;;3.30;2.92;;;;;;;23.59;57.79;96624.00;6216078;23;20032;-79
2021/07/27 09:30:42;;;;;;;5.00;3.78;;;;;;;23.59;57.83;96640.00;6216612;23;20025;-79
2021/07/27 09:33:11;;;;;;;6.82;3.80;;;;;;;23.58;57.09;96635.75;6218421;23;20021;-77
2021/07/27 09:35:41;;;;;;;4.78;3.83;;;;;;;23.58;57.27;96633.09;6215711;23;20017;-76
2021/07/27 09:38:10;;;;;;;5.32;4.30;;;;;;;23.59;57.55;96624.84;6216481;23;20043;-81
2021/07/27 09:40:48;;;;;;;5.40;4.03;;;;;;;23.62;57.39;96636.81;6216285;23;20476;-80
2021/07/27 09:43:33;;;;;;;4.55;3.70;;;;;;;23.65;56.28;96623.75;6216054;23;20017;-77
2021/07/27 09:46:02;;;;;;;4.63;4.03;;;;;;;23.68;57.50;96629.63;6216471;23;20016;-76
2021/07/27 09:48:30;;;;;;;7.22;3.75;;;;;;;23.70;57.11;96625.63;6216140;23;20017;-74
2021/07/27 09:50:59;;;;;;;5.45;4.28;;;;;;;23.71;55.57;96635.22;6215636;23;20024;-73
2021/07/27 09:53:27;;;;;;;5.75;3.45;;;;;;;23.68;56.10;96627.78;6216341;23;20020;-73
2021/07/27 09:55:55;;;;;;;4.65;3.67;;;;;;;23.67;55.77;96625.38;6215508;23;20035;-77
2021/07/27 09:58:23;;;;;;;5.75;4.00;;;;;;;23.71;56.63;96629.91;6218675;23;20356;-75
2021/07/27 10:00:54;;;;;;;5.25;3.88;;;;;;;23.75;55.71;96622.19;6216196;23;20025;-75
2021/07/27 10:03:24;;;;;;;5.78;3.90;;;;;;;23.78;55.80;96624.34;6215507;23;20024;-77
2021/07/27 10:05:54;;;;;;;4.28;3.70;;;;;;;23.84;55.75;96621.41;6215447;23;20020;-75
2021/07/27 10:08:30;;;;;;;7.35;3.97;;;;;;;23.95;55.66;96616.09;6216033;23;20025;-76
2021/07/27 10:11:09;;;;;;;6.90;3.85;;;;;;;24.02;55.38;96616.63;6216642;23;20235;-76
2021/07/27 10:13:38;;;;;;;4.80;3.80;;;;;;;24.09;55.25;96619.00;6215395;23;20021;-76
2021/07/27 10:16:05;;;;;;;3.78;3.38;;;;;;;24.15;56.50;96621.41;6216113;23;20025;-79
2021/07/27 10:18:35;;;;;;;5.25;3.67;;;;;;;24.24;56.54;96608.34;6215490;23;20100;-78
2021/07/27 10:21:24;;;;;;;4.82;3.78;;;;;;;24.33;55.08;96608.59;6215962;23;20023;-77
2021/07/27 10:23:54;;;;;;;8.23;4.03;;;;;;;24.37;53.78;96612.31;6216959;23;20035;-81
2021/07/27 10:26:29;;;;;;;4.35;3.88;;;;;;;24.38;53.87;96609.38;6217098;23;20020;-79
2021/07/27 10:28:57;;;;;;;4.45;3.88;;;;;;;24.41;53.58;96605.38;6216602;23;20023;-75
2021/07/27 10:31:33;;;;;;;6.18;3.60;;;;;;;24.45;53.78;96603.78;6215805;23;20023;-77
2021/07/27 10:34:02;;;;;;;5.72;3.40;;;;;;;24.53;53.16;96605.09;6213866;23;20020;-77
2021/07/27 10:36:33;;;;;;;5.97;4.20;;;;;;;24.60;54.16;96603.75;6215470;23;20031;-77
2021/07/27 10:39:10;;;;;;;4.93;3.70;;;;;;;24.72;53.54;96605.31;6215682;23;20075;-76
2021/07/27 10:41:40;;;;;;;5.07;3.83;;;;;;;24.85;54.10;96604.72;6219193;23;20029;-77
2021/07/27 10:44:09;;;;;;;6.32;3.55;;;;;;;24.96;53.50;96608.94;6215141;23;20043;-77
2021/07/27 10:46:38;;;;;;;5.68;3.88;;;;;;;25.00;52.18;96607.34;6217627;23;20020;-79
2021/07/27 10:49:13;;;;;;;5.47;3.72;;;;;;;25.00;52.33;96603.88;6222736;23;20032;-78
2021/07/27 10:51:41;;;;;;;5.40;3.75;;;;;;;24.99;51.95;96602.25;6215161;23;20491;-79
2021/07/27 10:54:10;;;;;;;4.90;3.05;;;;;;;25.01;51.97;96606.25;6214971;23;20021;-79
2021/07/27 10:56:37;;;;;;;8.85;3.58;;;;;;;25.01;51.22;96595.56;6215354;23;20040;-78
2021/07/27 10:59:06;;;;;;;5.25;3.60;;;;;;;25.03;50.93;96598.78;6214774;23;20031;-78
2021/07/27 11:01:34;;;;;;;4.43;3.45;;;;;;;25.02;51.05;96597.19;6213357;23;20020;-78
2021/07/27 11:04:09;;;;;;;5.53;3.33;;;;;;;24.99;52.11;96592.41;6212855;23;20044;-78
2021/07/27 11:06:38;;;;;;;4.78;3.67;;;;;;;25.05;52.23;96603.84;6213443;23;20024;-78
2021/07/27 11:09:11;;;;;;;4.95;3.47;;;;;;;25.08;51.58;96598.75;6213795;23;20024;-78
2021/07/27 11:11:50;;;;;;;4.75;3.47;;;;;;;25.12;51.34;96595.53;6214280;23;20079;-78
2021/07/27 11:14:19;;;;;;;6.07;3.70;;;;;;;25.14;51.26;96598.72;6215012;23;20020;-78
2021/07/27 11:16:47;;;;;;;3.47;3.03;;;;;;;25.12;50.23;96596.31;6215890;23;20027;-78
2021/07/27 11:19:28;;;;;;;5.13;3.72;;;;;;;25.09;50.69;96592.34;6215708;23;20032;-78
2021/07/27 11:21:57;;;;;;;4.10;3.70;;;;;;;25.11;51.75;96589.41;6215634;23;20027;-78
2021/07/27 11:24:25;;;;;;;4.43;3.17;;;;;;;25.15;51.55;96589.66;6215741;23;20021;-78
2021/07/27 11:26:55;;;;;;;5.00;4.18;;;;;;;25.14;49.96;96588.84;6215576;23;20028;-78
2021/07/27 11:29:23;;;;;;;4.20;3.80;;;;;;;25.14;51.21;96588.84;6215331;23;20024;-78
2021/07/27 11:31:54;;;;;;;5.07;4.07;;;;;;;25.19;50.50;96591.53;6215952;23;20032;-78
2021/07/27 11:34:29;;;;;;;4.15;3.75;;;;;;;25.23;50.06;96591.75;6215252;23;20021;-78
2021/07/27 11:36:58;;;;;;;4.70;3.50;;;;;;;25.23;50.16;96591.75;6215371;23;20032;-78
2021/07/27 11:39:26;;;;;;;7.47;3.85;;;;;;;25.18;50.35;96587.22;6214807;23;20031;-77
2021/07/27 11:42:03;;;;;;;4.03;3.08;;;;;;;25.21;50.13;96593.91;6216231;23;20017;-79
2021/07/27 11:44:30;;;;;;;5.43;3.85;;;;;;;25.22;49.88;96579.50;6215603;23;20032;-78
2021/07/27 11:46:58;;;;;;;5.07;3.70;;;;;;;25.22;49.63;96576.84;6216477;23;20020;-78
2021/07/27 11:49:27;;;;;;;8.68;4.22;;;;;;;25.21;49.99;96578.72;6215976;23;20071;-77
2021/07/27 11:52:02;;;;;;;5.32;3.60;;;;;;;25.24;50.11;96583.47;6212288;23;20024;-77
2021/07/27 11:54:30;;;;;;;5.13;3.67;;;;;;;25.25;49.34;96574.41;6214281;23;20062;-78
2021/07/27 11:56:57;;;;;;;3.80;3.00;;;;;;;25.28;50.64;96567.72;6215123;23;20020;-77
2021/07/27 11:59:27;;;;;;;3.60;3.30;;;;;;;25.33;49.15;96565.00;6214382;23;20023;-77
2021/07/27 12:01:57;;;;;;;3.35;3.05;;;;;;;25.36;48.42;96558.31;6214855;23;20024;-78